Time;durP1;ratioP1;P1;durP2;ratioP2;P2;SDS_P1;SDS_P2;PMS_P1;PMS_P2;Temp;Humidity;BMP_temperature;BMP_pressure;BME280_temperature;BME280_humidity;BME280_pressure;Samples;Min_cycle;Max_cycle;Signal;HPM_P1;HPM_P2
2021/09/06 00:02:22;;;;;;;6.80;6.10;;;18.70;72.80;;;;;;10496923;28;20242;-64
2021/09/06 00:07:45;;;;;;;7.30;6.27;;;18.70;72.80;;;;;;10459663;28;20319;-62
2021/09/06 00:13:10;;;;;;;6.93;6.13;;;18.70;72.90;;;;;;10496066;28;20216;-64
2021/09/06 00:18:33;;;;;;;6.83;6.13;;;18.70;73.00;;;;;;10496094;28;20200;-63
2021/09/06 00:23:55;;;;;;;6.03;5.43;;;18.60;73.10;;;;;;10496236;28;20188;-63
2021/09/06 00:29:18;;;;;;;6.67;5.90;;;18.60;73.20;;;;;;10495561;28;20602;-64
2021/09/06 00:34:40;;;;;;;6.43;5.83;;;18.60;73.30;;;;;;10496812;28;20193;-64
2021/09/06 00:40:03;;;;;;;6.80;6.10;;;18.60;73.10;;;;;;10486977;28;20595;-63
2021/09/06 00:45:26;;;;;;;6.23;5.00;;;18.60;72.90;;;;;;10496647;28;20671;-65
2021/09/06 00:50:49;;;;;;;6.30;5.70;;;18.60;72.70;;;;;;10468762;28;20213;-63
2021/09/06 00:56:12;;;;;;;7.07;6.13;;;18.60;72.50;;;;;;10494124;28;20203;-63
2021/09/06 01:01:35;;;;;;;6.27;5.50;;;18.70;72.40;;;;;;10494262;28;20579;-64
2021/09/06 01:06:57;;;;;;;6.43;5.83;;;18.60;72.20;;;;;;10494412;28;20207;-65
2021/09/06 01:12:19;;;;;;;7.13;5.90;;;18.60;72.10;;;;;;10494111;28;20707;-64
2021/09/06 01:17:43;;;;;;;6.63;5.77;;;18.60;72.10;;;;;;10494092;28;20196;-65
2021/09/06 01:23:05;;;;;;;7.67;6.40;;;18.60;72.20;;;;;;10492657;28;20219;-63
2021/09/06 01:28:29;;;;;;;7.07;6.13;;;18.60;72.20;;;;;;10493849;28;20226;-64
2021/09/06 01:33:52;;;;;;;6.73;5.93;;;18.60;72.20;;;;;;10493342;28;20193;-64
2021/09/06 01:39:14;;;;;;;6.47;5.53;;;18.60;72.10;;;;;;10493236;28;20216;-62
2021/09/06 01:44:37;;;;;;;6.00;5.40;;;18.60;71.90;;;;;;10493426;28;20204;-64
2021/09/06 01:49:59;;;;;;;6.60;5.90;;;18.60;71.90;;;;;;10492876;28;20208;-64
2021/09/06 01:55:21;;;;;;;6.53;5.57;;;18.60;72.10;;;;;;10492653;28;20192;-64
2021/09/06 02:00:45;;;;;;;6.17;5.57;;;18.60;72.20;;;;;;10492143;28;20717;-64
2021/09/06 02:06:07;;;;;;;6.13;5.33;;;18.60;72.30;;;;;;10492241;28;20215;-64
2021/09/06 02:11:30;;;;;;;5.83;5.23;;;18.60;72.30;;;;;;10492755;28;20209;-63
2021/09/06 02:16:53;;;;;;;5.50;5.00;;;18.60;72.10;;;;;;10507344;22;20231;-66
2021/09/06 02:22:15;;;;;;;5.97;5.37;;;18.60;72.20;;;;;;10492293;28;20588;-65
2021/09/06 02:27:37;;;;;;;5.97;5.17;;;18.60;72.30;;;;;;10444017;28;20208;-66
2021/09/06 02:33:01;;;;;;;6.70;5.97;;;18.60;72.30;;;;;;10446154;28;20711;-66
2021/09/06 02:38:23;;;;;;;5.97;5.20;;;18.60;72.30;;;;;;10451848;28;20581;-66
2021/09/06 02:43:45;;;;;;;6.60;5.53;;;18.60;72.20;;;;;;10451283;28;20616;-66
2021/09/06 02:49:08;;;;;;;6.03;5.43;;;18.60;72.10;;;;;;10451476;28;20200;-65
2021/09/06 02:54:30;;;;;;;5.37;4.87;;;18.60;71.90;;;;;;10450646;28;20229;-66
2021/09/06 02:59:52;;;;;;;6.23;5.20;;;18.60;71.90;;;;;;10451191;28;20219;-66
2021/09/06 03:05:16;;;;;;;5.70;5.10;;;18.60;71.70;;;;;;10450939;28;20228;-66
2021/09/06 03:10:38;;;;;;;5.70;5.10;;;18.60;71.60;;;;;;10450936;28;20200;-66
2021/09/06 03:16:00;;;;;;;6.37;4.87;;;18.60;71.40;;;;;;10445482;28;20224;-66
2021/09/06 03:21:23;;;;;;;5.97;5.37;;;18.50;71.10;;;;;;10457347;28;20205;-65
2021/09/06 03:26:45;;;;;;;5.57;4.83;;;18.50;70.90;;;;;;10458336;28;20224;-65
2021/09/06 03:32:08;;;;;;;5.30;4.80;;;18.50;70.70;;;;;;10435837;28;20197;-65
2021/09/06 03:37:31;;;;;;;5.40;4.90;;;18.60;70.70;;;;;;10451566;28;20783;-66
2021/09/06 03:42:53;;;;;;;5.90;5.30;;;18.50;70.80;;;;;;10457808;28;20224;-66
2021/09/06 03:48:15;;;;;;;5.27;4.60;;;18.50;70.80;;;;;;10457225;28;20208;-66
2021/09/06 03:53:39;;;;;;;5.70;5.07;;;18.50;70.90;;;;;;10456169;28;20212;-66
2021/09/06 03:59:01;;;;;;;5.73;5.10;;;18.50;71.00;;;;;;10456073;28;20197;-66
2021/09/06 04:04:23;;;;;;;5.80;4.87;;;18.50;71.00;;;;;;10456385;28;20224;-65
2021/09/06 04:09:46;;;;;;;5.40;4.67;;;18.50;71.00;;;;;;10456249;28;20190;-66
2021/09/06 04:15:10;;;;;;;5.20;4.70;;;18.50;71.00;;;;;;10457256;28;20754;-66
2021/09/06 04:20:32;;;;;;;5.67;5.07;;;18.50;71.00;;;;;;10456481;28;20209;-66
2021/09/06 04:25:56;;;;;;;5.23;4.73;;;18.50;71.00;;;;;;10456380;28;20637;-66
2021/09/06 04:31:18;;;;;;;4.93;4.43;;;18.50;71.00;;;;;;10441338;28;20193;-66
2021/09/06 04:36:40;;;;;;;6.43;5.47;;;18.50;70.90;;;;;;10455358;28;20217;-66
2021/09/06 04:42:04;;;;;;;5.23;4.73;;;18.50;71.00;;;;;;10425373;28;20216;-66
2021/09/06 04:47:26;;;;;;;5.83;5.03;;;18.50;70.90;;;;;;10456114;28;20196;-66
2021/09/06 04:52:48;;;;;;;5.23;4.73;;;18.50;70.80;;;;;;10454984;28;20209;-66
2021/09/06 04:58:12;;;;;;;5.07;4.57;;;18.50;70.70;;;;;;10455887;28;20585;-66
2021/09/06 05:03:34;;;;;;;5.30;4.40;;;18.50;70.70;;;;;;10454703;28;20221;-66
2021/09/06 05:08:57;;;;;;;4.40;4.00;;;18.50;70.60;;;;;;10455359;28;20205;-66
2021/09/06 05:14:20;;;;;;;4.97;4.23;;;18.50;70.60;;;;;;10454358;28;20225;-66
2021/09/06 05:19:43;;;;;;;5.30;4.80;;;18.50;70.40;;;;;;10454012;28;20685;-66
2021/09/06 05:25:06;;;;;;;4.33;3.80;;;18.50;70.40;;;;;;10455232;28;20244;-66
2021/09/06 05:30:30;;;;;;;4.43;4.03;;;18.50;70.40;;;;;;10422382;28;20198;-66
2021/09/06 05:35:52;;;;;;;4.63;4.07;;;18.50;70.40;;;;;;10413951;28;20296;-66
2021/09/06 05:41:15;;;;;;;5.00;4.30;;;18.50;70.40;;;;;;10429865;28;20229;-66
2021/09/06 05:46:39;;;;;;;4.60;4.00;;;18.50;70.40;;;;;;10453771;28;20294;-66
2021/09/06 05:52:01;;;;;;;4.40;4.00;;;18.40;71.00;;;;;;10417624;28;20198;-66
2021/09/06 05:57:24;;;;;;;4.53;4.13;;;18.40;70.50;;;;;;10426304;28;20202;-66
2021/09/06 06:02:47;;;;;;;5.53;3.77;;;18.40;70.50;;;;;;10453714;28;20711;-66
2021/09/06 06:08:09;;;;;;;4.67;4.07;;;18.40;70.50;;;;;;10453040;28;20193;-65
2021/09/06 06:13:31;;;;;;;4.23;3.83;;;18.50;70.60;;;;;;10441175;28;20724;-66
2021/09/06 06:18:55;;;;;;;4.03;3.67;;;18.40;69.50;;;;;;10415874;28;20204;-56
2021/09/06 06:24:17;;;;;;;5.33;3.97;;;18.40;67.90;;;;;;10449971;28;20228;-54
2021/09/06 06:29:39;;;;;;;4.50;4.10;;;18.40;67.40;;;;;;10424763;28;20209;-59
2021/09/06 06:35:03;;;;;;;5.23;4.40;;;18.40;67.70;;;;;;10433395;28;20227;-58
2021/09/06 06:40:25;;;;;;;6.87;4.83;;;18.40;67.80;;;;;;10444667;28;20213;-55
2021/09/06 06:45:47;;;;;;;5.07;4.57;;;18.40;68.00;;;;;;10447948;28;20217;-57
2021/09/06 06:51:11;;;;;;;4.37;3.73;;;18.40;68.20;;;;;;10423409;28;20194;-55
2021/09/06 06:56:33;;;;;;;6.70;4.37;;;18.40;68.40;;;;;;10423130;28;20228;-66
2021/09/06 07:01:55;;;;;;;5.60;4.33;;;18.40;68.50;;;;;;10448623;28;20216;-57
2021/09/06 07:07:18;;;;;;;5.77;4.20;;;18.40;68.70;;;;;;10431615;28;20217;-57
2021/09/06 07:12:41;;;;;;;7.37;4.70;;;18.40;68.80;;;;;;10446592;28;20228;-54
2021/09/06 07:18:04;;;;;;;5.30;4.17;;;18.30;68.80;;;;;;10447640;28;20689;-56
2021/09/06 07:23:27;;;;;;;5.27;4.20;;;18.40;69.30;;;;;;10443613;28;20221;-54
2021/09/06 07:28:50;;;;;;;5.43;3.90;;;18.40;69.60;;;;;;10430200;28;20193;-57
2021/09/06 07:34:12;;;;;;;6.10;4.63;;;18.40;69.80;;;;;;10406943;28;20222;-58
2021/09/06 07:39:38;;;;;;;5.77;4.70;;;18.40;70.10;;;;;;10404745;28;20205;-58
2021/09/06 07:45:00;;;;;;;4.73;4.23;;;18.40;70.20;;;;;;10418873;28;20229;-57
2021/09/06 07:50:22;;;;;;;6.67;4.63;;;18.40;70.30;;;;;;10437032;28;20197;-58
2021/09/06 07:55:45;;;;;;;4.87;4.37;;;18.40;70.30;;;;;;10450187;28;20221;-57
2021/09/06 08:01:07;;;;;;;7.70;4.80;;;18.40;69.90;;;;;;10449568;28;20213;-56
2021/09/06 08:06:29;;;;;;;6.13;4.67;;;18.40;69.70;;;;;;10415126;28;20218;-57
2021/09/06 08:11:55;;;;;;;4.97;4.47;;;18.40;69.60;;;;;;10440844;28;20201;-57
2021/09/06 08:17:17;;;;;;;6.67;5.43;;;18.40;69.70;;;;;;10455305;28;20737;-56
2021/09/06 08:22:40;;;;;;;6.13;5.20;;;18.40;69.70;;;;;;10432388;28;20607;-56
2021/09/06 08:28:04;;;;;;;9.17;4.90;;;18.40;69.90;;;;;;10426017;28;20202;-56
2021/09/06 08:33:26;;;;;;;7.93;5.13;;;18.40;70.10;;;;;;10418725;28;20205;-57
2021/09/06 08:38:48;;;;;;;5.80;4.80;;;18.40;70.20;;;;;;10455271;28;20205;-57
2021/09/06 08:44:12;;;;;;;6.47;5.00;;;18.40;70.30;;;;;;10455090;28;20244;-64
2021/09/06 08:49:34;;;;;;;6.60;5.27;;;18.40;70.40;;;;;;10453494;28;20226;-64
2021/09/06 08:54:56;;;;;;;8.03;4.80;;;18.40;70.50;;;;;;10454954;28;20212;-64
2021/09/06 09:00:27;;;;;;;6.73;5.30;;;18.40;70.70;;;;;;10454586;28;20189;-63
2021/09/06 09:06:00;;;;;;;6.10;5.47;;;18.40;70.80;;;;;;10453924;28;20214;-64
2021/09/06 09:11:22;;;;;;;5.43;4.77;;;18.40;70.90;;;;;;10454281;28;20684;-64
2021/09/06 09:16:55;;;;;;;8.20;4.70;;;18.40;71.00;;;;;;10453252;28;20723;-64
2021/09/06 09:22:19;;;;;;;6.87;5.37;;;18.40;71.00;;;;;;10451844;28;20658;-64
2021/09/06 09:27:43;;;;;;;6.27;5.03;;;18.40;71.20;;;;;;10455416;28;20212;-64
2021/09/06 09:33:11;;;;;;;6.70;5.00;;;18.40;71.20;;;;;;10453385;28;20220;-63
2021/09/06 09:38:37;;;;;;;6.37;5.07;;;18.40;71.30;;;;;;10452382;28;20201;-64
2021/09/06 09:44:17;;;;;;;6.87;5.43;;;18.40;71.40;;;;;;10453654;28;20347;-64
2021/09/06 09:49:42;;;;;;;7.03;5.43;;;18.40;71.40;;;;;;10452882;28;20686;-64
2021/09/06 09:55:04;;;;;;;5.60;5.00;;;18.40;71.50;;;;;;10452055;28;20597;-64
2021/09/06 10:00:27;;;;;;;7.00;5.50;;;18.40;71.50;;;;;;10452166;28;20208;-64
2021/09/06 10:05:52;;;;;;;5.73;4.57;;;18.40;71.50;;;;;;10453220;28;20217;-64
2021/09/06 10:11:14;;;;;;;5.33;4.83;;;18.40;71.50;;;;;;10452123;28;20197;-64
2021/09/06 10:16:38;;;;;;;5.97;5.23;;;18.40;71.50;;;;;;10448794;28;20225;-64
2021/09/06 10:22:01;;;;;;;6.20;5.23;;;18.40;71.60;;;;;;10420514;28;20216;-64
2021/09/06 10:27:24;;;;;;;6.10;5.50;;;18.40;71.60;;;;;;10449158;28;20704;-62
2021/09/06 10:32:48;;;;;;;6.60;5.77;;;18.40;71.60;;;;;;10451428;28;20224;-62
2021/09/06 10:38:15;;;;;;;6.10;5.50;;;18.40;71.60;;;;;;10451756;28;20657;-62
2021/09/06 10:43:46;;;;;;;5.60;5.10;;;18.40;71.60;;;;;;10451376;28;20597;-62
2021/09/06 10:49:08;;;;;;;6.30;5.50;;;18.40;71.60;;;;;;10438592;28;20240;-63
2021/09/06 10:54:33;;;;;;;5.67;5.17;;;18.40;71.70;;;;;;10414745;28;20204;-64
2021/09/06 10:59:55;;;;;;;6.27;5.47;;;18.40;71.80;;;;;;10449397;28;20584;-65
2021/09/06 11:05:18;;;;;;;8.27;5.23;;;18.40;71.80;;;;;;10434013;28;20581;-64
2021/09/06 11:10:44;;;;;;;7.43;6.00;;;18.40;71.80;;;;;;10450279;28;20238;-59
2021/09/06 11:16:07;;;;;;;6.90;5.63;;;18.40;71.90;;;;;;10409686;28;20241;-70
2021/09/06 11:21:29;;;;;;;6.90;5.77;;;18.40;72.00;;;;;;10447888;28;20220;-69
2021/09/06 11:26:53;;;;;;;7.97;6.57;;;18.40;72.00;;;;;;10447205;28;20220;-69
2021/09/06 11:32:15;;;;;;;8.17;6.83;;;18.40;72.10;;;;;;10409462;28;20661;-69
2021/09/06 11:37:38;;;;;;;7.20;6.20;;;18.40;72.10;;;;;;10449602;28;20201;-71
2021/09/06 11:43:03;;;;;;;8.03;6.60;;;18.40;72.00;;;;;;10449693;28;20221;-70
2021/09/06 11:48:25;;;;;;;7.70;6.77;;;18.40;72.10;;;;;;10508827;22;20227;-63
2021/09/06 11:53:55;;;;;;;7.37;6.63;;;18.40;72.20;;;;;;10494522;28;20200;-63
2021/09/06 11:59:28;;;;;;;7.80;6.30;;;18.40;72.20;;;;;;10526818;28;20273;-64
2021/09/06 12:05:01;;;;;;;8.70;6.40;;;18.40;72.20;;;;;;10550071;28;20255;-65
2021/09/06 12:10:25;;;;;;;8.90;6.67;;;18.40;72.20;;;;;;10522822;28;20196;-64
2021/09/06 12:15:57;;;;;;;8.90;6.93;;;18.40;72.30;;;;;;10495263;28;20216;-65
2021/09/06 12:21:21;;;;;;;8.50;6.60;;;18.40;72.20;;;;;;10522075;28;20223;-65
2021/09/06 12:26:48;;;;;;;8.60;6.30;;;18.40;72.30;;;;;;10536931;28;20671;-64
2021/09/06 12:32:14;;;;;;;7.80;6.73;;;18.40;72.40;;;;;;10512050;28;20226;-65
2021/09/06 12:37:36;;;;;;;8.20;6.70;;;18.40;72.30;;;;;;10536329;28;20222;-64
2021/09/06 12:42:58;;;;;;;8.07;6.63;;;18.40;72.30;;;;;;10535852;28;20353;-65
2021/09/06 12:48:23;;;;;;;7.27;6.10;;;18.40;72.40;;;;;;10499209;28;1039571;-64
2021/09/06 12:53:45;;;;;;;7.30;6.37;;;18.40;72.40;;;;;;10536182;28;20200;-65
2021/09/06 12:59:08;;;;;;;8.47;6.20;;;18.40;72.50;;;;;;10538222;28;20220;-65
2021/09/06 13:04:31;;;;;;;8.20;6.87;;;18.40;72.50;;;;;;10537067;28;20308;-67
2021/09/06 13:09:53;;;;;;;7.23;6.43;;;18.40;72.50;;;;;;10535564;28;20710;-64
2021/09/06 13:15:16;;;;;;;7.83;6.67;;;18.40;72.50;;;;;;10537831;28;20568;-65
2021/09/06 13:20:39;;;;;;;8.40;6.60;;;18.40;72.50;;;;;;10537342;28;20195;-65
2021/09/06 13:26:04;;;;;;;7.20;6.13;;;18.40;72.50;;;;;;10531100;28;20212;-54
2021/09/06 13:31:26;;;;;;;7.43;5.40;;;18.40;72.40;;;;;;10535442;28;20188;-54
2021/09/06 13:36:50;;;;;;;6.50;5.57;;;18.40;72.50;;;;;;10537370;28;20211;-58
2021/09/06 13:42:12;;;;;;;6.40;5.77;;;18.40;72.40;;;;;;10536156;28;20765;-57
2021/09/06 13:47:34;;;;;;;7.20;5.87;;;18.40;72.20;;;;;;10535955;28;20235;-57
2021/09/06 13:52:57;;;;;;;7.60;6.70;;;18.40;71.80;;;;;;10536269;28;20565;-55
2021/09/06 13:58:19;;;;;;;7.63;5.70;;;18.40;71.60;;;;;;10535429;28;20219;-59
2021/09/06 14:03:41;;;;;;;6.60;5.87;;;18.30;71.60;;;;;;10535751;28;20223;-58
2021/09/06 14:09:05;;;;;;;6.67;5.47;;;18.40;71.90;;;;;;10545216;28;20211;-52
2021/09/06 14:14:27;;;;;;;7.23;6.23;;;18.40;71.90;;;;;;10539180;28;20704;-59
2021/09/06 14:19:49;;;;;;;7.37;5.77;;;18.40;72.00;;;;;;10531202;28;20216;-59
2021/09/06 14:25:13;;;;;;;8.10;5.80;;;18.40;72.10;;;;;;10535086;28;20615;-57
2021/09/06 14:30:35;;;;;;;6.93;5.80;;;18.40;72.20;;;;;;10535087;28;20192;-59
2021/09/06 14:35:59;;;;;;;7.10;6.00;;;18.40;72.20;;;;;;10507541;28;20573;-55
2021/09/06 14:41:22;;;;;;;9.43;5.53;;;18.60;71.20;;;;;;10492288;28;20212;-54
2021/09/06 14:46:45;;;;;;;5.93;5.03;;;18.60;71.50;;;;;;10500587;28;20227;-59
2021/09/06 14:52:08;;;;;;;6.37;5.30;;;18.50;71.70;;;;;;10534683;28;20191;-55
2021/09/06 14:57:32;;;;;;;6.67;4.77;;;18.50;71.90;;;;;;10524554;28;20219;-56
2021/09/06 15:02:54;;;;;;;6.87;5.17;;;18.40;72.00;;;;;;10533397;28;20227;-51
2021/09/06 15:08:16;;;;;;;6.00;4.50;;;18.40;72.20;;;;;;10533624;28;20208;-52
2021/09/06 15:13:39;;;;;;;6.67;4.67;;;18.40;72.30;;;;;;10535370;28;20195;-55
2021/09/06 15:19:01;;;;;;;6.43;4.43;;;18.40;72.30;;;;;;10541621;28;20219;-54
2021/09/06 15:24:23;;;;;;;5.50;4.47;;;18.50;72.40;;;;;;10540926;28;20223;-56
2021/09/06 15:30:29;;;;;;;6.47;4.73;;;18.40;72.40;;;;;;10541644;28;20211;-55
2021/09/06 15:35:53;;;;;;;5.50;3.87;;;18.40;72.30;;;;;;10541803;28;20212;-57
2021/09/06 15:41:16;;;;;;;8.17;4.50;;;18.40;72.60;;;;;;10540198;28;20219;-57
2021/09/06 15:46:44;;;;;;;5.07;4.37;;;18.40;72.60;;;;;;10540626;28;20238;-57
2021/09/06 15:52:07;;;;;;;5.07;4.27;;;18.40;72.70;;;;;;10527896;28;20691;-56
2021/09/06 15:57:29;;;;;;;5.13;4.17;;;18.40;72.70;;;;;;10545304;28;20223;-55
2021/09/06 16:02:52;;;;;;;4.40;4.00;;;18.40;72.70;;;;;;10540652;28;20218;-59
2021/09/06 16:08:14;;;;;;;3.90;3.60;;;18.40;72.80;;;;;;10522970;28;20728;-57
2021/09/06 16:13:36;;;;;;;5.07;4.00;;;18.40;72.80;;;;;;10543850;28;20204;-55
2021/09/06 16:19:00;;;;;;;4.60;3.93;;;18.40;72.90;;;;;;10540661;28;20220;-55
2021/09/06 16:24:22;;;;;;;4.00;3.60;;;18.40;72.90;;;;;;10539139;28;20223;-65
2021/09/06 16:29:44;;;;;;;4.10;3.70;;;18.40;73.00;;;;;;10527322;28;20216;-65
2021/09/06 16:35:09;;;;;;;4.57;4.07;;;18.40;73.00;;;;;;10537015;28;20191;-64
2021/09/06 16:40:31;;;;;;;4.97;4.20;;;18.40;73.10;;;;;;10536143;28;20200;-65
2021/09/06 16:45:54;;;;;;;4.57;3.90;;;18.40;73.10;;;;;;10495432;28;20862;-65
2021/09/06 16:51:17;;;;;;;4.90;3.83;;;18.40;73.20;;;;;;10495376;28;20227;-65
2021/09/06 16:56:39;;;;;;;4.13;3.73;;;18.40;73.20;;;;;;10536763;28;20204;-64
2021/09/06 17:02:01;;;;;;;4.60;4.10;;;18.40;73.20;;;;;;10536645;28;20219;-64
2021/09/06 17:07:25;;;;;;;4.53;3.67;;;18.40;73.20;;;;;;10535032;28;20211;-64
2021/09/06 17:12:47;;;;;;;5.23;4.33;;;18.40;73.20;;;;;;10536581;28;20192;-64
2021/09/06 17:18:09;;;;;;;4.57;3.67;;;18.40;73.20;;;;;;10537615;28;20208;-63
2021/09/06 17:23:33;;;;;;;5.38;4.88;;;18.40;73.20;;;;;;10535039;28;20436;-64
2021/09/06 17:28:55;;;;;;;3.97;3.57;;;18.50;73.10;;;;;;10514376;28;20212;-65
2021/09/06 17:34:17;;;;;;;4.10;3.70;;;18.50;73.00;;;;;;10495776;28;20193;-64
2021/09/06 17:39:40;;;;;;;4.40;3.97;;;18.50;73.10;;;;;;10512103;28;20215;-65
2021/09/06 17:45:03;;;;;;;4.00;3.47;;;18.40;73.10;;;;;;10537067;28;20231;-66
2021/09/06 17:50:25;;;;;;;4.77;3.97;;;18.40;73.20;;;;;;10513420;23;20240;-67
2021/09/06 17:55:49;;;;;;;4.80;4.07;;;18.40;73.30;;;;;;10493186;28;20687;-68
2021/09/06 18:01:11;;;;;;;4.70;3.93;;;18.50;73.40;;;;;;10452566;28;20201;-68
2021/09/06 18:06:33;;;;;;;4.13;3.70;;;18.40;73.40;;;;;;10461302;28;20220;-68
2021/09/06 18:11:57;;;;;;;4.10;3.57;;;18.40;73.40;;;;;;10493530;28;20218;-68
2021/09/06 18:17:19;;;;;;;4.63;3.73;;;18.40;73.50;;;;;;10442731;28;20221;-68
2021/09/06 18:22:41;;;;;;;4.00;3.60;;;18.40;73.50;;;;;;10411195;28;20217;-67
2021/09/06 18:28:05;;;;;;;4.07;3.43;;;18.40;73.50;;;;;;10477356;28;20240;-68
2021/09/06 18:33:27;;;;;;;4.40;3.80;;;18.40;73.50;;;;;;10477970;28;20193;-68
2021/09/06 18:38:49;;;;;;;4.40;3.73;;;18.40;73.50;;;;;;10492811;28;20220;-68
2021/09/06 18:44:12;;;;;;;4.47;3.17;;;18.50;73.60;;;;;;10492647;28;20216;-68
2021/09/06 18:49:35;;;;;;;4.00;3.30;;;18.50;73.60;;;;;;10491054;28;20230;-68
2021/09/06 18:54:58;;;;;;;4.30;3.37;;;18.50;73.60;;;;;;10486725;28;20189;-66
2021/09/06 19:00:21;;;;;;;4.23;3.27;;;18.50;74.00;;;;;;10450258;28;20239;-65
2021/09/06 19:05:43;;;;;;;8.53;3.80;;;18.50;73.90;;;;;;10447702;28;20220;-66
2021/09/06 19:11:05;;;;;;;11.77;4.10;;;18.50;73.80;;;;;;10404442;28;20228;-65
2021/09/06 19:16:29;;;;;;;16.30;4.17;;;18.50;73.90;;;;;;10426843;28;20224;-65
2021/09/06 19:21:51;;;;;;;11.87;4.10;;;18.50;74.00;;;;;;10446650;28;20208;-66
2021/09/06 19:27:13;;;;;;;7.70;3.73;;;18.50;74.00;;;;;;10469146;28;20567;-66
2021/09/06 19:32:37;;;;;;;10.07;3.77;;;18.50;74.10;;;;;;10454800;28;20200;-66
2021/09/06 19:38:00;;;;;;;6.50;3.23;;;18.50;74.20;;;;;;10450604;28;20232;-65
2021/09/06 19:43:22;;;;;;;12.80;3.60;;;18.50;74.20;;;;;;10449144;28;20213;-65
2021/09/06 19:48:46;;;;;;;8.93;3.67;;;18.50;74.20;;;;;;10449172;28;20239;-65
2021/09/06 19:54:08;;;;;;;7.47;4.07;;;18.50;74.90;;;;;;10451420;28;20205;-66
2021/09/06 19:59:30;;;;;;;6.77;3.30;;;18.50;74.20;;;;;;10476241;28;20227;-66
2021/09/06 20:04:54;;;;;;;7.53;3.50;;;18.50;74.30;;;;;;10459982;28;20609;-66
2021/09/06 20:10:16;;;;;;;6.57;3.90;;;18.50;74.30;;;;;;10456118;28;20216;-66
2021/09/06 20:15:38;;;;;;;5.53;3.10;;;18.50;74.40;;;;;;10458320;28;20200;-66
2021/09/06 20:21:02;;;;;;;5.97;3.50;;;18.50;74.50;;;;;;10457091;28;20677;-65
2021/09/06 20:26:24;;;;;;;4.67;3.17;;;18.50;74.60;;;;;;10457729;28;20597;-64
2021/09/06 20:31:46;;;;;;;6.37;3.03;;;18.50;74.70;;;;;;10455708;28;20228;-65
2021/09/06 20:37:09;;;;;;;5.90;3.40;;;18.60;74.90;;;;;;10459022;28;20221;-64
2021/09/06 20:42:32;;;;;;;4.57;2.97;;;18.50;74.80;;;;;;10472582;28;20200;-65
2021/09/06 20:47:54;;;;;;;4.83;3.00;;;18.50;74.90;;;;;;10455418;28;20235;-66
2021/09/06 20:53:18;;;;;;;5.83;3.03;;;18.60;75.00;;;;;;10455385;28;20665;-64
2021/09/06 20:58:40;;;;;;;4.23;2.63;;;18.50;75.00;;;;;;10455128;28;20228;-65
2021/09/06 21:04:02;;;;;;;2.93;2.63;;;18.50;75.50;;;;;;10456278;28;20707;-64
2021/09/06 21:09:25;;;;;;;4.80;3.47;;;18.50;74.90;;;;;;10451406;28;21101;-65
2021/09/06 21:14:48;;;;;;;4.37;3.00;;;19.00;73.30;;;;;;10452939;28;20579;-65
2021/09/06 21:20:11;;;;;;;3.70;2.70;;;18.80;73.80;;;;;;10452450;28;20221;-66
2021/09/06 21:25:34;;;;;;;4.77;2.53;;;18.70;74.20;;;;;;10450236;28;20562;-66
2021/09/06 21:30:56;;;;;;;5.50;3.33;;;18.60;74.40;;;;;;10452450;28;20555;-66
2021/09/06 21:36:18;;;;;;;3.00;2.67;;;18.60;74.60;;;;;;10449167;28;20209;-65
2021/09/06 21:41:42;;;;;;;2.80;2.40;;;18.60;74.70;;;;;;10458838;28;20588;-65
2021/09/06 21:47:04;;;;;;;3.43;2.50;;;18.60;74.80;;;;;;10494650;28;20220;-65
2021/09/06 21:52:26;;;;;;;3.47;2.63;;;18.50;74.80;;;;;;10417456;28;20190;-66
2021/09/06 21:57:50;;;;;;;3.23;2.50;;;18.50;74.80;;;;;;10457320;28;20209;-65
2021/09/06 22:03:12;;;;;;;3.17;2.50;;;18.50;74.80;;;;;;10493764;28;20687;-65
2021/09/06 22:08:34;;;;;;;2.50;2.30;;;18.50;74.80;;;;;;10493876;28;20212;-65
2021/09/06 22:13:58;;;;;;;3.37;3.00;;;18.50;74.80;;;;;;10493792;28;20189;-66
2021/09/06 22:19:20;;;;;;;3.83;2.70;;;18.50;74.80;;;;;;10479349;28;20221;-65
2021/09/06 22:24:42;;;;;;;3.13;2.43;;;18.50;74.80;;;;;;10452370;28;20213;-65
2021/09/06 22:30:08;;;;;;;3.10;2.27;;;18.50;74.80;;;;;;10479868;28;20220;-65
2021/09/06 22:35:30;;;;;;;3.13;2.40;;;18.50;74.80;;;;;;10492341;28;20193;-65
2021/09/06 22:40:52;;;;;;;3.57;2.50;;;18.50;74.80;;;;;;10492657;28;20193;-66
2021/09/06 22:46:16;;;;;;;3.50;2.63;;;18.50;74.80;;;;;;10492630;28;20228;-65
2021/09/06 22:51:38;;;;;;;2.43;2.23;;;18.50;74.80;;;;;;10492488;28;20196;-65
2021/09/06 22:57:01;;;;;;;2.90;2.60;;;18.50;74.90;;;;;;10490710;28;20216;-66
2021/09/06 23:02:24;;;;;;;3.07;2.53;;;18.50;74.80;;;;;;10472846;28;20223;-65
2021/09/06 23:07:46;;;;;;;3.67;2.70;;;18.50;74.80;;;;;;10450128;28;20228;-65
2021/09/06 23:13:08;;;;;;;3.23;2.43;;;18.50;74.80;;;;;;10451798;28;20193;-65
2021/09/06 23:18:32;;;;;;;4.00;2.60;;;18.50;74.90;;;;;;10451497;28;20217;-65
2021/09/06 23:23:54;;;;;;;3.07;2.73;;;18.50;74.90;;;;;;10416074;28;20208;-65
2021/09/06 23:29:16;;;;;;;3.37;2.70;;;18.50;74.90;;;;;;10472634;28;20227;-65
2021/09/06 23:34:39;;;;;;;3.00;2.70;;;18.50;74.90;;;;;;10493649;28;20572;-65
2021/09/06 23:40:02;;;;;;;3.00;2.70;;;18.50;74.90;;;;;;10499337;28;20227;-65
2021/09/06 23:45:25;;;;;;;3.77;3.07;;;18.50;74.80;;;;;;10462171;28;20324;-65
2021/09/06 23:50:48;;;;;;;2.77;2.50;;;18.50;74.80;;;;;;10520277;22;20236;-62
2021/09/06 23:56:11;;;;;;;3.17;2.87;;;18.50;74.80;;;;;;10500512;28;20685;-65
